sensor_id;sensor_type;location;lat;lon;timestamp;temperature;humidity
5578;DHT22;2811;51.900;10.734;2023-02-26T00:02:24;1.10;99.90
5578;DHT22;2811;51.900;10.734;2023-02-26T00:04:52;1.00;99.90
5578;DHT22;2811;51.900;10.734;2023-02-26T00:07:19;1.00;99.90
5578;DHT22;2811;51.900;10.734;2023-02-26T00:09:46;1.00;99.90
5578;DHT22;2811;51.900;10.734;2023-02-26T00:12:12;1.10;99.90
5578;DHT22;2811;51.900;10.734;2023-02-26T00:14:40;1.00;99.90
5578;DHT22;2811;51.900;10.734;2023-02-26T00:17:35;1.00;99.90
5578;DHT22;2811;51.900;10.734;2023-02-26T00:20:08;0.80;99.90
5578;DHT22;2811;51.900;10.734;2023-02-26T00:22:36;0.90;99.90
5578;DHT22;2811;51.900;10.734;2023-02-26T00:25:03;0.90;99.90
5578;DHT22;2811;51.900;10.734;2023-02-26T00:27:30;0.90;99.90
5578;DHT22;2811;51.900;10.734;2023-02-26T00:29:57;0.90;99.90
5578;DHT22;2811;51.900;10.734;2023-02-26T00:32:24;0.80;99.90
5578;DHT22;2811;51.900;10.734;2023-02-26T00:34:52;0.90;99.90
5578;DHT22;2811;51.900;10.734;2023-02-26T00:37:28;0.90;99.90
5578;DHT22;2811;51.900;10.734;2023-02-26T00:40:05;0.90;99.90
5578;DHT22;2811;51.900;10.734;2023-02-26T00:42:34;0.80;99.90
5578;DHT22;2811;51.900;10.734;2023-02-26T00:45:01;0.80;99.90
5578;DHT22;2811;51.900;10.734;2023-02-26T00:47:32;0.70;99.90
5578;DHT22;2811;51.900;10.734;2023-02-26T00:50:12;0.80;99.90
5578;DHT22;2811;51.900;10.734;2023-02-26T00:52:45;0.80;99.90
5578;DHT22;2811;51.900;10.734;2023-02-26T00:55:13;0.90;99.90
5578;DHT22;2811;51.900;10.734;2023-02-26T00:57:40;0.80;99.90
5578;DHT22;2811;51.900;10.734;2023-02-26T01:00:08;0.80;99.90
5578;DHT22;2811;51.900;10.734;2023-02-26T01:02:36;0.70;99.90
5578;DHT22;2811;51.900;10.734;2023-02-26T01:05:04;0.70;99.90
5578;DHT22;2811;51.900;10.734;2023-02-26T01:07:37;0.70;99.90
5578;DHT22;2811;51.900;10.734;2023-02-26T01:10:08;0.80;99.90
5578;DHT22;2811;51.900;10.734;2023-02-26T01:12:35;0.80;99.90
5578;DHT22;2811;51.900;10.734;2023-02-26T01:15:03;0.80;99.90
5578;DHT22;2811;51.900;10.734;2023-02-26T01:17:34;0.70;99.90
5578;DHT22;2811;51.900;10.734;2023-02-26T01:20:04;0.70;99.90
5578;DHT22;2811;51.900;10.734;2023-02-26T01:22:39;0.70;99.90
5578;DHT22;2811;51.900;10.734;2023-02-26T01:25:12;0.60;99.90
5578;DHT22;2811;51.900;10.734;2023-02-26T01:27:40;0.60;99.90
5578;DHT22;2811;51.900;10.734;2023-02-26T01:30:07;0.50;99.90
5578;DHT22;2811;51.900;10.734;2023-02-26T01:32:42;0.50;99.90
5578;DHT22;2811;51.900;10.734;2023-02-26T01:35:19;0.60;99.90
5578;DHT22;2811;51.900;10.734;2023-02-26T01:37:51;0.60;99.90
5578;DHT22;2811;51.900;10.734;2023-02-26T01:40:35;0.60;99.90
5578;DHT22;2811;51.900;10.734;2023-02-26T01:43:10;0.80;99.90
5578;DHT22;2811;51.900;10.734;2023-02-26T01:45:44;0.50;99.90
5578;DHT22;2811;51.900;10.734;2023-02-26T01:48:20;0.60;99.90
5578;DHT22;2811;51.900;10.734;2023-02-26T01:50:54;0.50;99.90
5578;DHT22;2811;51.900;10.734;2023-02-26T01:53:22;0.50;99.90
5578;DHT22;2811;51.900;10.734;2023-02-26T01:55:55;0.50;99.90
5578;DHT22;2811;51.900;10.734;2023-02-26T01:58:24;0.50;99.90
5578;DHT22;2811;51.900;10.734;2023-02-26T02:00:51;0.50;99.90
5578;DHT22;2811;51.900;10.734;2023-02-26T02:03:19;1.10;99.90
5578;DHT22;2811;51.900;10.734;2023-02-26T02:05:48;0.70;99.90
5578;DHT22;2811;51.900;10.734;2023-02-26T02:08:16;0.60;99.90
5578;DHT22;2811;51.900;10.734;2023-02-26T02:10:45;0.60;99.90
5578;DHT22;2811;51.900;10.734;2023-02-26T02:13:23;0.50;99.90
5578;DHT22;2811;51.900;10.734;2023-02-26T02:15:54;0.60;99.90
5578;DHT22;2811;51.900;10.734;2023-02-26T02:18:31;0.60;99.90
5578;DHT22;2811;51.900;10.734;2023-02-26T02:24:02;0.40;99.90
5578;DHT22;2811;51.900;10.734;2023-02-26T02:26:44;0.60;99.90
5578;DHT22;2811;51.900;10.734;2023-02-26T02:29:30;0.50;99.90
5578;DHT22;2811;51.900;10.734;2023-02-26T02:32:01;0.50;99.90
5578;DHT22;2811;51.900;10.734;2023-02-26T02:34:33;0.50;99.90
5578;DHT22;2811;51.900;10.734;2023-02-26T02:37:05;0.60;99.90
5578;DHT22;2811;51.900;10.734;2023-02-26T02:39:36;0.50;99.90
5578;DHT22;2811;51.900;10.734;2023-02-26T02:42:07;0.50;99.90
5578;DHT22;2811;51.900;10.734;2023-02-26T02:44:38;0.50;99.90
5578;DHT22;2811;51.900;10.734;2023-02-26T02:47:10;0.40;99.90
5578;DHT22;2811;51.900;10.734;2023-02-26T02:49:41;0.40;99.90
5578;DHT22;2811;51.900;10.734;2023-02-26T02:52:13;0.30;99.90
5578;DHT22;2811;51.900;10.734;2023-02-26T02:54:47;0.30;99.90
5578;DHT22;2811;51.900;10.734;2023-02-26T02:57:18;0.20;99.90
5578;DHT22;2811;51.900;10.734;2023-02-26T02:59:49;0.30;99.90
5578;DHT22;2811;51.900;10.734;2023-02-26T03:02:22;0.30;99.90
5578;DHT22;2811;51.900;10.734;2023-02-26T03:04:50;0.40;99.90
5578;DHT22;2811;51.900;10.734;2023-02-26T03:07:18;0.50;99.90
5578;DHT22;2811;51.900;10.734;2023-02-26T03:09:45;0.30;99.90
5578;DHT22;2811;51.900;10.734;2023-02-26T03:12:12;0.30;99.90
5578;DHT22;2811;51.900;10.734;2023-02-26T03:14:39;0.40;99.90
5578;DHT22;2811;51.900;10.734;2023-02-26T03:17:18;0.50;99.90
5578;DHT22;2811;51.900;10.734;2023-02-26T03:19:59;0.40;99.90
5578;DHT22;2811;51.900;10.734;2023-02-26T03:22:34;0.40;99.90
5578;DHT22;2811;51.900;10.734;2023-02-26T03:25:09;0.50;99.90
5578;DHT22;2811;51.900;10.734;2023-02-26T03:27:42;0.50;99.90
5578;DHT22;2811;51.900;10.734;2023-02-26T03:30:15;0.50;99.90
5578;DHT22;2811;51.900;10.734;2023-02-26T03:32:50;0.50;99.90
5578;DHT22;2811;51.900;10.734;2023-02-26T03:35:23;0.50;99.90
5578;DHT22;2811;51.900;10.734;2023-02-26T03:37:54;0.40;99.90
5578;DHT22;2811;51.900;10.734;2023-02-26T03:40:26;0.50;99.90
5578;DHT22;2811;51.900;10.734;2023-02-26T03:42:58;0.50;99.90
5578;DHT22;2811;51.900;10.734;2023-02-26T03:45:29;0.50;99.90
5578;DHT22;2811;51.900;10.734;2023-02-26T03:47:58;0.50;99.90
5578;DHT22;2811;51.900;10.734;2023-02-26T03:50:30;0.50;99.90
5578;DHT22;2811;51.900;10.734;2023-02-26T03:52:59;0.50;99.90
5578;DHT22;2811;51.900;10.734;2023-02-26T03:55:31;0.50;99.90
5578;DHT22;2811;51.900;10.734;2023-02-26T03:57:58;0.50;99.90
5578;DHT22;2811;51.900;10.734;2023-02-26T04:00:26;0.60;99.90
5578;DHT22;2811;51.900;10.734;2023-02-26T04:02:57;0.60;99.90
5578;DHT22;2811;51.900;10.734;2023-02-26T04:05:29;0.60;99.90
5578;DHT22;2811;51.900;10.734;2023-02-26T04:07:57;0.60;99.90
5578;DHT22;2811;51.900;10.734;2023-02-26T04:10:34;0.70;99.90
5578;DHT22;2811;51.900;10.734;2023-02-26T04:13:02;0.70;99.90
5578;DHT22;2811;51.900;10.734;2023-02-26T04:15:29;0.80;99.90
5578;DHT22;2811;51.900;10.734;2023-02-26T04:17:55;0.90;99.90
5578;DHT22;2811;51.900;10.734;2023-02-26T04:20:22;0.80;99.90
5578;DHT22;2811;51.900;10.734;2023-02-26T04:22:50;0.70;99.90
5578;DHT22;2811;51.900;10.734;2023-02-26T04:25:17;0.70;99.90
5578;DHT22;2811;51.900;10.734;2023-02-26T04:27:43;0.80;99.90
5578;DHT22;2811;51.900;10.734;2023-02-26T04:30:11;0.80;99.90
5578;DHT22;2811;51.900;10.734;2023-02-26T04:32:37;0.90;99.90
5578;DHT22;2811;51.900;10.734;2023-02-26T04:35:04;0.80;99.90
5578;DHT22;2811;51.900;10.734;2023-02-26T04:37:31;0.80;99.90
5578;DHT22;2811;51.900;10.734;2023-02-26T04:39:59;0.80;99.90
5578;DHT22;2811;51.900;10.734;2023-02-26T04:42:26;0.80;99.90
5578;DHT22;2811;51.900;10.734;2023-02-26T04:44:52;0.80;99.90
5578;DHT22;2811;51.900;10.734;2023-02-26T04:47:19;0.60;99.90
5578;DHT22;2811;51.900;10.734;2023-02-26T04:49:46;0.70;99.90
5578;DHT22;2811;51.900;10.734;2023-02-26T04:52:13;0.70;99.90
5578;DHT22;2811;51.900;10.734;2023-02-26T04:54:39;0.70;99.90
5578;DHT22;2811;51.900;10.734;2023-02-26T04:57:07;0.80;99.90
5578;DHT22;2811;51.900;10.734;2023-02-26T04:59:34;0.80;99.90
5578;DHT22;2811;51.900;10.734;2023-02-26T05:02:03;0.80;99.90
5578;DHT22;2811;51.900;10.734;2023-02-26T05:04:30;0.70;99.90
5578;DHT22;2811;51.900;10.734;2023-02-26T05:06:57;0.80;99.90
5578;DHT22;2811;51.900;10.734;2023-02-26T05:09:23;0.80;99.90
5578;DHT22;2811;51.900;10.734;2023-02-26T05:11:50;0.80;99.90
5578;DHT22;2811;51.900;10.734;2023-02-26T05:14:18;0.70;99.90
5578;DHT22;2811;51.900;10.734;2023-02-26T05:16:45;0.80;99.90
5578;DHT22;2811;51.900;10.734;2023-02-26T05:19:11;0.80;99.90
5578;DHT22;2811;51.900;10.734;2023-02-26T05:21:38;0.70;99.90
5578;DHT22;2811;51.900;10.734;2023-02-26T05:24:05;0.70;99.90
5578;DHT22;2811;51.900;10.734;2023-02-26T05:26:32;0.80;99.90
5578;DHT22;2811;51.900;10.734;2023-02-26T05:28:59;0.80;99.90
5578;DHT22;2811;51.900;10.734;2023-02-26T05:31:27;0.80;99.90
5578;DHT22;2811;51.900;10.734;2023-02-26T05:33:54;0.80;99.90
5578;DHT22;2811;51.900;10.734;2023-02-26T05:36:21;0.70;99.90
5578;DHT22;2811;51.900;10.734;2023-02-26T05:38:47;0.80;99.90
5578;DHT22;2811;51.900;10.734;2023-02-26T05:41:14;0.70;99.90
5578;DHT22;2811;51.900;10.734;2023-02-26T05:43:40;0.70;99.90
5578;DHT22;2811;51.900;10.734;2023-02-26T05:46:07;0.70;99.90
5578;DHT22;2811;51.900;10.734;2023-02-26T05:48:35;0.70;99.90
5578;DHT22;2811;51.900;10.734;2023-02-26T05:51:02;0.90;99.90
5578;DHT22;2811;51.900;10.734;2023-02-26T05:53:28;0.80;99.90
5578;DHT22;2811;51.900;10.734;2023-02-26T05:55:55;0.80;99.90
5578;DHT22;2811;51.900;10.734;2023-02-26T05:58:22;0.90;99.90
5578;DHT22;2811;51.900;10.734;2023-02-26T06:00:49;0.80;99.90
5578;DHT22;2811;51.900;10.734;2023-02-26T06:03:15;0.80;99.90
5578;DHT22;2811;51.900;10.734;2023-02-26T06:05:43;0.80;99.90
5578;DHT22;2811;51.900;10.734;2023-02-26T06:08:10;0.80;99.90
5578;DHT22;2811;51.900;10.734;2023-02-26T06:10:39;0.80;99.90
5578;DHT22;2811;51.900;10.734;2023-02-26T06:13:06;0.90;99.90
5578;DHT22;2811;51.900;10.734;2023-02-26T06:15:33;0.80;99.90
5578;DHT22;2811;51.900;10.734;2023-02-26T06:17:59;0.70;99.90
5578;DHT22;2811;51.900;10.734;2023-02-26T06:20:26;0.80;99.90
5578;DHT22;2811;51.900;10.734;2023-02-26T06:22:54;0.80;99.90
5578;DHT22;2811;51.900;10.734;2023-02-26T06:25:21;0.60;99.90
5578;DHT22;2811;51.900;10.734;2023-02-26T06:27:48;0.70;99.90
5578;DHT22;2811;51.900;10.734;2023-02-26T06:30:14;0.70;99.90
5578;DHT22;2811;51.900;10.734;2023-02-26T06:32:42;0.80;99.90
5578;DHT22;2811;51.900;10.734;2023-02-26T06:35:10;0.80;99.90
5578;DHT22;2811;51.900;10.734;2023-02-26T06:37:36;0.80;99.90
5578;DHT22;2811;51.900;10.734;2023-02-26T06:40:06;0.90;99.90
5578;DHT22;2811;51.900;10.734;2023-02-26T06:42:35;0.90;99.90
5578;DHT22;2811;51.900;10.734;2023-02-26T06:45:01;0.80;99.90
5578;DHT22;2811;51.900;10.734;2023-02-26T06:47:28;0.90;99.90
5578;DHT22;2811;51.900;10.734;2023-02-26T06:49:55;0.90;99.90
5578;DHT22;2811;51.900;10.734;2023-02-26T06:52:21;0.90;99.90
5578;DHT22;2811;51.900;10.734;2023-02-26T06:54:48;1.00;99.90
5578;DHT22;2811;51.900;10.734;2023-02-26T06:57:16;0.90;99.90
5578;DHT22;2811;51.900;10.734;2023-02-26T06:59:43;1.00;99.90
5578;DHT22;2811;51.900;10.734;2023-02-26T07:02:15;1.10;99.90
5578;DHT22;2811;51.900;10.734;2023-02-26T07:04:42;1.20;99.90
5578;DHT22;2811;51.900;10.734;2023-02-26T07:07:08;1.00;99.90
5578;DHT22;2811;51.900;10.734;2023-02-26T07:09:35;1.10;99.90
5578;DHT22;2811;51.900;10.734;2023-02-26T07:12:02;1.10;99.90
5578;DHT22;2811;51.900;10.734;2023-02-26T07:14:30;1.10;99.90
5578;DHT22;2811;51.900;10.734;2023-02-26T07:16:57;1.10;99.90
5578;DHT22;2811;51.900;10.734;2023-02-26T07:19:24;1.20;99.90
5578;DHT22;2811;51.900;10.734;2023-02-26T07:21:50;1.30;99.90
5578;DHT22;2811;51.900;10.734;2023-02-26T07:24:19;1.30;99.90
5578;DHT22;2811;51.900;10.734;2023-02-26T07:26:46;1.40;99.90
5578;DHT22;2811;51.900;10.734;2023-02-26T07:29:12;1.30;99.90
5578;DHT22;2811;51.900;10.734;2023-02-26T07:31:40;1.30;99.90
5578;DHT22;2811;51.900;10.734;2023-02-26T07:34:07;1.40;99.90
5578;DHT22;2811;51.900;10.734;2023-02-26T07:36:33;1.30;99.90
5578;DHT22;2811;51.900;10.734;2023-02-26T07:39:00;1.30;99.90
5578;DHT22;2811;51.900;10.734;2023-02-26T07:41:27;1.40;99.90
5578;DHT22;2811;51.900;10.734;2023-02-26T07:43:53;1.60;99.90
5578;DHT22;2811;51.900;10.734;2023-02-26T07:46:20;1.50;99.90
5578;DHT22;2811;51.900;10.734;2023-02-26T07:48:48;1.40;99.90
5578;DHT22;2811;51.900;10.734;2023-02-26T07:51:15;1.30;99.90
5578;DHT22;2811;51.900;10.734;2023-02-26T07:53:41;1.30;99.90
5578;DHT22;2811;51.900;10.734;2023-02-26T07:56:08;1.30;99.90
5578;DHT22;2811;51.900;10.734;2023-02-26T07:58:35;1.30;99.90
5578;DHT22;2811;51.900;10.734;2023-02-26T08:01:01;1.30;99.90
5578;DHT22;2811;51.900;10.734;2023-02-26T08:03:28;1.30;99.90
5578;DHT22;2811;51.900;10.734;2023-02-26T08:05:57;1.50;99.90
5578;DHT22;2811;51.900;10.734;2023-02-26T08:08:25;1.60;99.90
5578;DHT22;2811;51.900;10.734;2023-02-26T08:10:51;1.70;99.90
5578;DHT22;2811;51.900;10.734;2023-02-26T08:13:18;1.80;99.90
5578;DHT22;2811;51.900;10.734;2023-02-26T08:15:46;2.00;99.90
5578;DHT22;2811;51.900;10.734;2023-02-26T08:18:13;2.20;99.90
5578;DHT22;2811;51.900;10.734;2023-02-26T08:20:40;2.00;99.90
5578;DHT22;2811;51.900;10.734;2023-02-26T08:23:08;2.30;99.90
5578;DHT22;2811;51.900;10.734;2023-02-26T08:25:34;2.50;99.90
5578;DHT22;2811;51.900;10.734;2023-02-26T08:28:01;2.60;99.90
5578;DHT22;2811;51.900;10.734;2023-02-26T08:30:28;2.60;99.90
5578;DHT22;2811;51.900;10.734;2023-02-26T08:32:54;2.40;99.90
5578;DHT22;2811;51.900;10.734;2023-02-26T08:35:21;2.80;99.90
5578;DHT22;2811;51.900;10.734;2023-02-26T08:37:48;2.80;99.90
5578;DHT22;2811;51.900;10.734;2023-02-26T08:40:16;2.80;99.90
5578;DHT22;2811;51.900;10.734;2023-02-26T08:42:43;3.00;99.90
5578;DHT22;2811;51.900;10.734;2023-02-26T08:45:10;3.00;99.90
5578;DHT22;2811;51.900;10.734;2023-02-26T08:47:37;3.10;99.90
5578;DHT22;2811;51.900;10.734;2023-02-26T08:50:06;3.20;99.90
5578;DHT22;2811;51.900;10.734;2023-02-26T08:52:33;3.30;99.90
5578;DHT22;2811;51.900;10.734;2023-02-26T08:54:59;3.40;99.90
5578;DHT22;2811;51.900;10.734;2023-02-26T08:57:27;3.30;99.90
5578;DHT22;2811;51.900;10.734;2023-02-26T08:59:54;3.40;99.90
5578;DHT22;2811;51.900;10.734;2023-02-26T09:02:20;3.40;99.90
5578;DHT22;2811;51.900;10.734;2023-02-26T09:04:47;3.30;99.90
5578;DHT22;2811;51.900;10.734;2023-02-26T09:07:14;2.90;99.90
5578;DHT22;2811;51.900;10.734;2023-02-26T09:09:40;3.00;99.90
5578;DHT22;2811;51.900;10.734;2023-02-26T09:12:07;2.80;99.90
5578;DHT22;2811;51.900;10.734;2023-02-26T09:14:35;2.80;99.90
5578;DHT22;2811;51.900;10.734;2023-02-26T09:17:02;2.70;99.90
5578;DHT22;2811;51.900;10.734;2023-02-26T09:19:28;2.50;99.90
5578;DHT22;2811;51.900;10.734;2023-02-26T09:21:55;2.40;99.90
5578;DHT22;2811;51.900;10.734;2023-02-26T09:24:22;2.40;99.90
5578;DHT22;2811;51.900;10.734;2023-02-26T09:26:48;2.50;99.90
5578;DHT22;2811;51.900;10.734;2023-02-26T09:29:15;2.60;99.90
5578;DHT22;2811;51.900;10.734;2023-02-26T09:31:43;2.70;99.90
5578;DHT22;2811;51.900;10.734;2023-02-26T09:34:10;2.60;99.90
5578;DHT22;2811;51.900;10.734;2023-02-26T09:36:37;2.40;99.90
5578;DHT22;2811;51.900;10.734;2023-02-26T09:39:04;2.40;99.90
5578;DHT22;2811;51.900;10.734;2023-02-26T09:41:33;2.40;99.90
5578;DHT22;2811;51.900;10.734;2023-02-26T09:44:19;2.50;99.90
5578;DHT22;2811;51.900;10.734;2023-02-26T09:46:54;2.50;99.90
5578;DHT22;2811;51.900;10.734;2023-02-26T09:49:32;2.30;99.90
5578;DHT22;2811;51.900;10.734;2023-02-26T09:52:04;2.50;99.90
5578;DHT22;2811;51.900;10.734;2023-02-26T09:54:40;2.50;99.90
5578;DHT22;2811;51.900;10.734;2023-02-26T09:57:10;2.50;99.90
5578;DHT22;2811;51.900;10.734;2023-02-26T09:59:40;2.40;99.90
5578;DHT22;2811;51.900;10.734;2023-02-26T10:02:14;2.40;99.90
5578;DHT22;2811;51.900;10.734;2023-02-26T10:04:49;2.40;99.90
5578;DHT22;2811;51.900;10.734;2023-02-26T10:07:24;2.20;99.90
5578;DHT22;2811;51.900;10.734;2023-02-26T10:09:59;2.10;99.90
5578;DHT22;2811;51.900;10.734;2023-02-26T10:12:29;2.20;99.90
5578;DHT22;2811;51.900;10.734;2023-02-26T10:15:00;2.30;99.90
5578;DHT22;2811;51.900;10.734;2023-02-26T10:17:37;2.40;99.90
5578;DHT22;2811;51.900;10.734;2023-02-26T10:20:10;2.70;99.90
5578;DHT22;2811;51.900;10.734;2023-02-26T10:22:47;2.70;99.90
5578;DHT22;2811;51.900;10.734;2023-02-26T10:25:20;3.10;99.90
5578;DHT22;2811;51.900;10.734;2023-02-26T10:27:53;3.30;99.90
5578;DHT22;2811;51.900;10.734;2023-02-26T10:30:27;3.10;99.90
5578;DHT22;2811;51.900;10.734;2023-02-26T10:33:02;3.00;99.90
5578;DHT22;2811;51.900;10.734;2023-02-26T10:35:36;2.80;99.90
5578;DHT22;2811;51.900;10.734;2023-02-26T10:38:10;2.60;99.90
5578;DHT22;2811;51.900;10.734;2023-02-26T10:40:41;2.60;99.90
5578;DHT22;2811;51.900;10.734;2023-02-26T10:43:15;2.60;99.90
5578;DHT22;2811;51.900;10.734;2023-02-26T10:45:54;2.50;99.90
5578;DHT22;2811;51.900;10.734;2023-02-26T10:48:33;2.70;99.90
5578;DHT22;2811;51.900;10.734;2023-02-26T10:51:10;3.10;99.90
5578;DHT22;2811;51.900;10.734;2023-02-26T10:53:37;3.40;99.90
5578;DHT22;2811;51.900;10.734;2023-02-26T10:56:09;3.60;99.90
5578;DHT22;2811;51.900;10.734;2023-02-26T10:58:37;3.90;99.90
5578;DHT22;2811;51.900;10.734;2023-02-26T11:01:06;3.70;99.90
5578;DHT22;2811;51.900;10.734;2023-02-26T11:03:43;3.80;99.90
5578;DHT22;2811;51.900;10.734;2023-02-26T11:06:16;4.20;99.90
5578;DHT22;2811;51.900;10.734;2023-02-26T11:08:46;4.70;99.90
5578;DHT22;2811;51.900;10.734;2023-02-26T11:11:38;4.90;99.90
5578;DHT22;2811;51.900;10.734;2023-02-26T11:14:06;4.50;99.90
5578;DHT22;2811;51.900;10.734;2023-02-26T11:16:34;4.20;99.90
5578;DHT22;2811;51.900;10.734;2023-02-26T11:19:04;3.80;99.90
5578;DHT22;2811;51.900;10.734;2023-02-26T11:21:37;4.30;99.90
5578;DHT22;2811;51.900;10.734;2023-02-26T11:24:06;5.00;99.90
5578;DHT22;2811;51.900;10.734;2023-02-26T11:26:37;5.30;99.10
5578;DHT22;2811;51.900;10.734;2023-02-26T11:29:05;5.30;99.90
5578;DHT22;2811;51.900;10.734;2023-02-26T11:31:32;5.20;99.20
5578;DHT22;2811;51.900;10.734;2023-02-26T11:34:02;5.10;99.90
5578;DHT22;2811;51.900;10.734;2023-02-26T11:36:31;5.20;99.90
5578;DHT22;2811;51.900;10.734;2023-02-26T11:39:01;5.60;97.80
5578;DHT22;2811;51.900;10.734;2023-02-26T11:41:28;5.90;98.70
5578;DHT22;2811;51.900;10.734;2023-02-26T11:43:59;5.60;98.90
5578;DHT22;2811;51.900;10.734;2023-02-26T11:46:26;4.90;98.90
5578;DHT22;2811;51.900;10.734;2023-02-26T11:48:54;4.20;99.10
5578;DHT22;2811;51.900;10.734;2023-02-26T11:51:26;3.80;99.90
5578;DHT22;2811;51.900;10.734;2023-02-26T11:53:54;3.50;99.90
5578;DHT22;2811;51.900;10.734;2023-02-26T11:56:25;3.60;99.90
5578;DHT22;2811;51.900;10.734;2023-02-26T11:58:53;3.90;99.80
5578;DHT22;2811;51.900;10.734;2023-02-26T12:01:26;4.50;99.80
5578;DHT22;2811;51.900;10.734;2023-02-26T12:03:57;5.00;98.20
5578;DHT22;2811;51.900;10.734;2023-02-26T12:06:25;5.10;99.40
5578;DHT22;2811;51.900;10.734;2023-02-26T12:08:52;5.30;99.90
5578;DHT22;2811;51.900;10.734;2023-02-26T12:11:42;5.00;97.70
5578;DHT22;2811;51.900;10.734;2023-02-26T12:14:24;4.50;95.10
5578;DHT22;2811;51.900;10.734;2023-02-26T12:17:04;4.30;96.20
5578;DHT22;2811;51.900;10.734;2023-02-26T12:19:39;4.50;96.20
5578;DHT22;2811;51.900;10.734;2023-02-26T12:22:26;4.70;97.30
5578;DHT22;2811;51.900;10.734;2023-02-26T12:25:20;5.00;96.70
5578;DHT22;2811;51.900;10.734;2023-02-26T12:28:28;4.80;98.60
5578;DHT22;2811;51.900;10.734;2023-02-26T12:31:20;4.50;98.90
5578;DHT22;2811;51.900;10.734;2023-02-26T12:34:01;4.30;98.30
5578;DHT22;2811;51.900;10.734;2023-02-26T12:36:41;4.10;97.40
5578;DHT22;2811;51.900;10.734;2023-02-26T12:39:33;4.00;97.90
5578;DHT22;2811;51.900;10.734;2023-02-26T12:42:16;4.10;99.40
5578;DHT22;2811;51.900;10.734;2023-02-26T12:44:58;4.40;98.40
5578;DHT22;2811;51.900;10.734;2023-02-26T12:47:39;4.70;96.50
5578;DHT22;2811;51.900;10.734;2023-02-26T12:50:18;4.70;97.60
5578;DHT22;2811;51.900;10.734;2023-02-26T12:53:32;4.60;97.40
5578;DHT22;2811;51.900;10.734;2023-02-26T12:59:16;4.20;96.70
5578;DHT22;2811;51.900;10.734;2023-02-26T13:01:59;4.10;97.80
5578;DHT22;2811;51.900;10.734;2023-02-26T13:05:03;4.50;99.00
5578;DHT22;2811;51.900;10.734;2023-02-26T13:07:43;5.00;97.50
5578;DHT22;2811;51.900;10.734;2023-02-26T13:10:20;5.20;96.40
5578;DHT22;2811;51.900;10.734;2023-02-26T13:12:56;5.10;95.30
5578;DHT22;2811;51.900;10.734;2023-02-26T13:15:40;4.90;96.00
5578;DHT22;2811;51.900;10.734;2023-02-26T13:18:18;4.70;97.30
5578;DHT22;2811;51.900;10.734;2023-02-26T13:20:53;4.30;97.50
5578;DHT22;2811;51.900;10.734;2023-02-26T13:23:24;4.00;97.80
5578;DHT22;2811;51.900;10.734;2023-02-26T13:25:56;4.10;96.60
5578;DHT22;2811;51.900;10.734;2023-02-26T13:28:38;3.80;95.80
5578;DHT22;2811;51.900;10.734;2023-02-26T13:31:09;3.70;96.70
5578;DHT22;2811;51.900;10.734;2023-02-26T13:33:38;3.70;97.20
5578;DHT22;2811;51.900;10.734;2023-02-26T13:36:06;4.30;96.20
5578;DHT22;2811;51.900;10.734;2023-02-26T13:38:40;4.70;94.70
5578;DHT22;2811;51.900;10.734;2023-02-26T13:41:13;4.90;94.50
5578;DHT22;2811;51.900;10.734;2023-02-26T13:43:49;5.20;94.00
5578;DHT22;2811;51.900;10.734;2023-02-26T13:46:27;5.20;95.30
5578;DHT22;2811;51.900;10.734;2023-02-26T13:49:03;5.30;94.40
5578;DHT22;2811;51.900;10.734;2023-02-26T13:51:35;5.30;93.90
5578;DHT22;2811;51.900;10.734;2023-02-26T13:54:07;4.90;94.40
5578;DHT22;2811;51.900;10.734;2023-02-26T13:56:49;4.50;94.20
5578;DHT22;2811;51.900;10.734;2023-02-26T13:59:31;4.40;94.80
5578;DHT22;2811;51.900;10.734;2023-02-26T14:02:02;4.30;95.10
5578;DHT22;2811;51.900;10.734;2023-02-26T14:04:31;4.40;95.40
5578;DHT22;2811;51.900;10.734;2023-02-26T14:06:59;4.50;94.30
5578;DHT22;2811;51.900;10.734;2023-02-26T14:09:35;4.70;94.30
5578;DHT22;2811;51.900;10.734;2023-02-26T14:12:03;5.10;93.90
5578;DHT22;2811;51.900;10.734;2023-02-26T14:14:39;5.00;93.60
5578;DHT22;2811;51.900;10.734;2023-02-26T14:17:28;4.80;93.90
5578;DHT22;2811;51.900;10.734;2023-02-26T14:20:29;4.40;94.10
5578;DHT22;2811;51.900;10.734;2023-02-26T14:23:16;4.10;94.50
5578;DHT22;2811;51.900;10.734;2023-02-26T14:25:47;4.00;94.00
5578;DHT22;2811;51.900;10.734;2023-02-26T14:28:33;4.10;93.60
5578;DHT22;2811;51.900;10.734;2023-02-26T14:31:17;4.30;93.80
5578;DHT22;2811;51.900;10.734;2023-02-26T14:33:57;4.50;94.10
5578;DHT22;2811;51.900;10.734;2023-02-26T14:36:32;4.60;93.50
5578;DHT22;2811;51.900;10.734;2023-02-26T14:39:02;4.90;92.70
5578;DHT22;2811;51.900;10.734;2023-02-26T14:41:33;5.00;93.10
5578;DHT22;2811;51.900;10.734;2023-02-26T14:44:03;5.30;91.40
5578;DHT22;2811;51.900;10.734;2023-02-26T14:46:34;5.30;92.10
5578;DHT22;2811;51.900;10.734;2023-02-26T14:49:01;5.10;92.00
5578;DHT22;2811;51.900;10.734;2023-02-26T14:51:40;5.00;92.20
5578;DHT22;2811;51.900;10.734;2023-02-26T14:54:31;4.70;94.40
5578;DHT22;2811;51.900;10.734;2023-02-26T14:57:02;4.90;94.80
5578;DHT22;2811;51.900;10.734;2023-02-26T14:59:52;5.00;93.60
5578;DHT22;2811;51.900;10.734;2023-02-26T15:02:27;4.90;93.60
5578;DHT22;2811;51.900;10.734;2023-02-26T15:05:22;4.80;93.40
5578;DHT22;2811;51.900;10.734;2023-02-26T15:08:10;4.60;92.90
5578;DHT22;2811;51.900;10.734;2023-02-26T15:10:52;4.60;93.00
5578;DHT22;2811;51.900;10.734;2023-02-26T15:13:47;4.50;93.70
5578;DHT22;2811;51.900;10.734;2023-02-26T15:16:27;4.40;94.40
5578;DHT22;2811;51.900;10.734;2023-02-26T15:19:15;4.40;94.40
5578;DHT22;2811;51.900;10.734;2023-02-26T15:21:53;4.30;95.20
5578;DHT22;2811;51.900;10.734;2023-02-26T15:24:25;4.30;95.60
5578;DHT22;2811;51.900;10.734;2023-02-26T15:26:57;4.10;95.50
5578;DHT22;2811;51.900;10.734;2023-02-26T15:29:27;4.10;96.40
5578;DHT22;2811;51.900;10.734;2023-02-26T15:31:57;4.10;96.40
5578;DHT22;2811;51.900;10.734;2023-02-26T15:34:27;3.90;97.70
5578;DHT22;2811;51.900;10.734;2023-02-26T15:36:56;3.90;97.50
5578;DHT22;2811;51.900;10.734;2023-02-26T15:39:23;3.90;97.30
5578;DHT22;2811;51.900;10.734;2023-02-26T15:41:52;4.00;96.90
5578;DHT22;2811;51.900;10.734;2023-02-26T15:44:22;4.10;96.40
5578;DHT22;2811;51.900;10.734;2023-02-26T15:46:54;3.90;96.50
5578;DHT22;2811;51.900;10.734;2023-02-26T15:49:24;3.70;97.70
5578;DHT22;2811;51.900;10.734;2023-02-26T15:51:56;3.80;98.20
5578;DHT22;2811;51.900;10.734;2023-02-26T15:54:24;3.80;98.50
5578;DHT22;2811;51.900;10.734;2023-02-26T15:56:53;4.00;98.00
5578;DHT22;2811;51.900;10.734;2023-02-26T15:59:22;4.10;98.10
5578;DHT22;2811;51.900;10.734;2023-02-26T16:01:51;4.20;97.90
5578;DHT22;2811;51.900;10.734;2023-02-26T16:04:19;4.20;98.20
5578;DHT22;2811;51.900;10.734;2023-02-26T16:06:47;4.30;98.60
5578;DHT22;2811;51.900;10.734;2023-02-26T16:09:18;4.30;98.80
5578;DHT22;2811;51.900;10.734;2023-02-26T16:11:46;4.30;99.00
5578;DHT22;2811;51.900;10.734;2023-02-26T16:14:17;4.20;99.20
5578;DHT22;2811;51.900;10.734;2023-02-26T16:16:47;4.10;99.70
5578;DHT22;2811;51.900;10.734;2023-02-26T16:19:16;4.10;99.60
5578;DHT22;2811;51.900;10.734;2023-02-26T16:21:46;4.10;99.10
5578;DHT22;2811;51.900;10.734;2023-02-26T16:24:16;4.00;99.10
5578;DHT22;2811;51.900;10.734;2023-02-26T16:26:49;4.00;99.50
5578;DHT22;2811;51.900;10.734;2023-02-26T16:29:20;3.80;99.90
5578;DHT22;2811;51.900;10.734;2023-02-26T16:31:51;3.70;99.90
5578;DHT22;2811;51.900;10.734;2023-02-26T16:34:26;3.60;99.90
5578;DHT22;2811;51.900;10.734;2023-02-26T16:36:54;3.60;99.90